Stations météo

réclame
Mon MeteoGroup
Kristianstad, Suède (2651): Température de l'air & dewpoint: 19.05.2018 12:00:00 - 25.05.2018 12:00:00 (CEST)Kristianstad, Suède (2651): Vitesse du vent: 19.05.2018 12:00:00 - 25.05.2018 12:00:00 (CEST)Kristianstad, Suède (2651): Direction du vent: 19.05.2018 12:00:00 - 25.05.2018 12:00:00 (CEST)Kristianstad, Suède (2651): visibility: 19.05.2018 12:00:00 - 25.05.2018 12:00:00 (CEST)
Date & Time tt [°C] td [°C] ff [km/h] ff [knt] dd vv [km]
25.05.2018 12:00:00 21,0 3,0 18 10 E 10
25.05.2018 11:00:00 20,0 0,0 15 8 NE 10
25.05.2018 10:00:00 18,0 1,0 18 10 ENE 10
25.05.2018 09:00:00 17,0 5,0 15 8 ENE 10
25.05.2018 08:00:00 14,0 6,0 5 3 - 10
25.05.2018 07:00:00 11,0 8,0 4 2 NW 10
25.05.2018 06:00:00 6,0 6,0 5 3 NW 10
25.05.2018 05:00:00 5,0 5,0 4 2 WNW 0,2
25.05.2018 04:00:00 5,0 5,0 4 2 - 0,2
25.05.2018 03:00:00 6,0 6,0 5 3 W 1,1
25.05.2018 02:00:00 6,0 5,0 4 2 - 4,1
25.05.2018 01:00:00 7,0 7,0 0 0 N 10
25.05.2018 00:00:00 8,0 6,0 5 3 - 10
24.05.2018 23:00:00 10,0 7,0 5 3 W 10
24.05.2018 22:00:00 13,0 7,0 5 3 ESE 10
24.05.2018 21:00:00 15,0 8,0 13 7 ESE 10
24.05.2018 20:00:00 16,0 7,0 16 9 ESE 10
24.05.2018 19:00:00 18,0 5,0 21 11 SE 10
24.05.2018 18:00:00 19,0 5,0 18 10 ESE 10
24.05.2018 17:00:00 19,0 7,0 22 12 SE 10
24.05.2018 16:00:00 21,0 8,0 18 10 ESE 10
24.05.2018 15:00:00 21,0 9,0 16 9 ESE 10
24.05.2018 14:00:00 22,0 10,0 18 10 SE 10
24.05.2018 13:00:00 22,0 9,0 16 9 ESE 10
24.05.2018 12:00:00 22,0 8,0 15 8 E 10
24.05.2018 11:00:00 21,0 9,0 13 7 E 10
24.05.2018 10:00:00 20,0 10,0 8 4 E 10
24.05.2018 09:00:00 18,0 10,0 2 1 NE 10
24.05.2018 08:00:00 15,0 12,0 0 0 N 10
24.05.2018 07:00:00 11,0 10,0 4 2 NW 10
24.05.2018 06:00:00 7,0 7,0 4 2 NW 10
24.05.2018 05:00:00 6,0 6,0 0 0 N 0,5
24.05.2018 04:00:00 6,0 6,0 4 2 W 0,3
24.05.2018 03:00:00 7,0 7,0 2 1 - 0,9
24.05.2018 02:00:00 8,0 8,0 4 2 - 10
24.05.2018 01:00:00 9,0 8,0 4 2 W 10
24.05.2018 00:00:00 10,0 8,0 2 1 NW 10
23.05.2018 23:00:00 12,0 9,0 0 0 N 10
23.05.2018 22:00:00 14,0 9,0 0 0 N 10
23.05.2018 21:00:00 18,0 9,0 0 0 N 10
23.05.2018 20:00:00 21,0 8,0 8 4 SSE 10
23.05.2018 19:00:00 22,0 8,0 16 9 ESE 10
23.05.2018 18:00:00 23,0 7,0 15 8 SE 10
23.05.2018 17:00:00 24,0 6,0 16 9 SE 10
23.05.2018 16:00:00 24,0 6,0 15 8 SE 10
23.05.2018 15:00:00 24,0 8,0 16 9 ESE 10
23.05.2018 14:00:00 25,0 6,0 13 7 ESE 10
23.05.2018 13:00:00 24,0 9,0 11 6 SE 10
23.05.2018 12:00:00 23,0 8,0 8 4 NE 10
23.05.2018 11:00:00 21,0 9,0 8 4 N 10
23.05.2018 10:00:00 20,0 9,0 4 2 N 10
23.05.2018 09:00:00 18,0 9,0 5 3 NNW 10
23.05.2018 08:00:00 16,0 9,0 8 4 W 10
23.05.2018 07:00:00 13,0 8,0 2 1 E 10
23.05.2018 06:00:00 11,0 7,0 4 2 W 10
23.05.2018 05:00:00 9,0 7,0 8 4 W 10
23.05.2018 04:00:00 7,0 6,0 4 2 SW 9
23.05.2018 03:00:00 7,0 6,0 0 0 N 10
23.05.2018 02:00:00 8,0 8,0 4 2 - 10
23.05.2018 01:00:00 8,0 8,0 0 0 N 10
23.05.2018 00:00:00 8,0 7,0 0 0 N 10
22.05.2018 23:00:00 11,0 8,0 0 0 N 10
22.05.2018 22:00:00 12,0 8,0 5 3 S 10
22.05.2018 21:00:00 15,0 9,0 8 4 ESE 10
22.05.2018 20:00:00 18,0 8,0 9 5 ESE 10
22.05.2018 19:00:00 20,0 8,0 8 4 SSE 10
22.05.2018 18:00:00 19,0 9,0 15 8 ESE 10
22.05.2018 17:00:00 20,0 6,0 9 5 ESE 10
22.05.2018 16:00:00 21,0 6,0 13 7 SE 10
22.05.2018 15:00:00 21,0 9,0 16 9 ESE 10
22.05.2018 14:00:00 20,0 9,0 15 8 E 10
22.05.2018 13:00:00 20,0 9,0 15 8 ESE 10
22.05.2018 12:00:00 19,0 8,0 9 5 ESE 10
22.05.2018 11:00:00 17,0 8,0 13 7 ESE 10
22.05.2018 10:00:00 17,0 7,0 11 6 E 10
22.05.2018 09:00:00 15,0 6,0 4 2 - 10
22.05.2018 08:00:00 11,0 7,0 5 3 NNW 10
22.05.2018 07:00:00 7,0 7,0 4 2 WNW 10
22.05.2018 06:00:00 4,0 4,0 5 3 W 10
22.05.2018 05:00:00 3,0 3,0 5 3 WNW 0,5
22.05.2018 04:00:00 4,0 4,0 0 0 N 0,2
22.05.2018 03:00:00 4,0 4,0 4 2 - 3,2
22.05.2018 02:00:00 5,0 4,0 0 0 N 10
22.05.2018 01:00:00 5,0 5,0 2 1 - 10
22.05.2018 00:00:00 6,0 5,0 2 1 - 10
21.05.2018 23:00:00 8,0 5,0 0 0 N 10
21.05.2018 22:00:00 13,0 6,0 5 3 E 10
21.05.2018 21:00:00 15,0 4,0 13 7 E 10
21.05.2018 20:00:00 16,0 5,0 16 9 ESE 10
21.05.2018 19:00:00 18,0 3,0 21 11 E 10
21.05.2018 18:00:00 19,0 3,0 24 13 E 10
21.05.2018 17:00:00 20,0 3,0 24 13 ESE 10
21.05.2018 16:00:00 19,0 4,0 21 11 E 10
21.05.2018 15:00:00 20,0 2,0 22 12 E 10
21.05.2018 14:00:00 19,0 3,0 18 10 ESE 10
21.05.2018 13:00:00 18,0 1,0 15 8 ESE 10
21.05.2018 12:00:00 17,0 4,0 15 8 E 10
21.05.2018 11:00:00 17,0 7,0 13 7 ESE 10
21.05.2018 10:00:00 16,0 9,0 11 6 SE 10
21.05.2018 09:00:00 13,0 9,0 5 3 E 10
21.05.2018 08:00:00 9,0 7,0 0 0 N 10
21.05.2018 07:00:00 7,0 6,0 4 2 WNW 10
21.05.2018 06:00:00 3,0 3,0 4 2 W 10
21.05.2018 05:00:00 2,0 2,0 4 2 W 0,2
21.05.2018 04:00:00 2,0 2,0 5 3 WNW 0,3
21.05.2018 03:00:00 2,0 2,0 0 0 N 1,2
21.05.2018 02:00:00 2,0 2,0 4 2 NNW 1,3
21.05.2018 01:00:00 4,0 4,0 2 1 WNW 2,5
21.05.2018 00:00:00 4,0 4,0 0 0 N 10
20.05.2018 23:00:00 5,0 4,0 0 0 N 10
20.05.2018 22:00:00 7,0 4,0 0 0 N 10
20.05.2018 21:00:00 12,0 4,0 5 3 SE 10
20.05.2018 20:00:00 14,0 3,0 13 7 ESE 10
20.05.2018 19:00:00 16,0 2,0 11 6 ESE 10
20.05.2018 18:00:00 17,0 3,0 13 7 SE 10
20.05.2018 17:00:00 18,0 4,0 16 9 SE 10
20.05.2018 16:00:00 18,0 5,0 15 8 SE 10
20.05.2018 15:00:00 - - - - - -
20.05.2018 14:00:00 - - - - - -
20.05.2018 13:00:00 - - - - - -
20.05.2018 12:00:00 - - - - - -
20.05.2018 11:00:00 - - - - - -
20.05.2018 10:00:00 - - - - - -
20.05.2018 09:00:00 - - - - - -
20.05.2018 08:00:00 - - - - - -
20.05.2018 07:00:00 - - - - - -
20.05.2018 06:00:00 - - - - - -
20.05.2018 05:00:00 - - - - - -
20.05.2018 04:00:00 - - - - - -
20.05.2018 03:00:00 - - - - - -
20.05.2018 02:00:00 - - - - - -
20.05.2018 01:00:00 - - - - - -
20.05.2018 00:00:00 - - - - - -
19.05.2018 23:00:00 - - - - - -
19.05.2018 22:00:00 - - - - - -
19.05.2018 21:00:00 - - - - - -
19.05.2018 20:00:00 - - - - - -
19.05.2018 19:00:00 - - - - - -
19.05.2018 18:00:00 - - - - - -
19.05.2018 17:00:00 - - - - - -
19.05.2018 16:00:00 - - - - - -
19.05.2018 15:00:00 - - - - - -
19.05.2018 14:00:00 - - - - - -
19.05.2018 13:00:00 - - - - - -
19.05.2018 12:00:00 - - - - - -

tt = Température de l'air
td = dewpoint
ff = Vitesse du vent
dd = Direction du vent
vv = visibility

stations d'obs. à proximité